Time;durP1;ratioP1;P1;durP2;ratioP2;P2;SDS_P1;SDS_P2;PMS_P1;PMS_P2;Temp;Humidity;BMP_temperature;BMP_pressure;BME280_temperature;BME280_humidity;BME280_pressure;Samples;Min_cycle;Max_cycle;Signal;HPM_P1;HPM_P2
2021/09/30 00:00:41;;;;;;;3.80;2.07;;;11.50;83.40;;;;;;5117550;28;20453;-72
2021/09/30 00:03:08;;;;;;;3.87;2.13;;;11.50;83.60;;;;;;5117529;28;20446;-72
2021/09/30 00:05:35;;;;;;;3.67;1.80;;;11.50;83.40;;;;;;5116991;28;20932;-72
2021/09/30 00:08:02;;;;;;;3.60;2.13;;;11.50;83.90;;;;;;5117614;28;20469;-72
2021/09/30 00:10:29;;;;;;;2.50;2.03;;;11.40;83.80;;;;;;5117121;28;20423;-72
2021/09/30 00:12:59;;;;;;;2.83;1.67;;;11.40;83.80;;;;;;5117375;28;20447;-72
2021/09/30 00:15:37;;;;;;;5.63;1.80;;;11.40;84.00;;;;;;5117265;28;20459;-72
2021/09/30 00:34:44;;;;;;;5.50;2.40;;;11.30;84.10;;;;;;5116899;28;20971;-72
2021/09/30 00:40:17;;;;;;;5.27;1.50;;;11.40;83.80;;;;;;5117146;28;20497;-72
2021/09/30 00:45:45;;;;;;;5.10;1.70;;;11.40;83.70;;;;;;5116845;28;20784;-72
2021/09/30 00:48:30;;;;;;;4.10;1.80;;;11.40;83.20;;;;;;5116640;28;20467;-72
2021/09/30 00:51:08;;;;;;;4.00;1.50;;;11.40;83.30;;;;;;5116884;28;20455;-72
2021/09/30 00:53:48;;;;;;;2.27;1.60;;;11.40;83.00;;;;;;5116504;28;20434;-72
2021/09/30 02:20:40;;;;;;;6.87;2.33;;;11.10;84.30;;;;;;5114960;28;20406;-72
2021/09/30 02:23:27;;;;;;;5.90;2.73;;;11.10;84.40;;;;;;5114786;28;20521;-73
2021/09/30 02:26:13;;;;;;;3.90;2.47;;;11.20;84.40;;;;;;5114743;28;20419;-73
2021/09/30 02:28:50;;;;;;;9.30;2.47;;;11.10;84.40;;;;;;5114342;28;20964;-72
2021/09/30 02:59:17;;;;;;;4.50;2.27;;;11.10;83.80;;;;;;5114296;28;20813;-72
2021/09/30 03:01:47;;;;;;;4.60;2.17;;;11.20;83.90;;;;;;5114192;27;20477;-72
2021/09/30 03:04:14;;;;;;;3.40;2.10;;;11.20;83.50;;;;;;5115022;28;20457;-72
2021/09/30 03:06:43;;;;;;;7.50;2.27;;;11.20;83.60;;;;;;5113760;28;20470;-72
2021/09/30 03:09:12;;;;;;;5.80;2.17;;;11.20;83.50;;;;;;5114087;28;20450;-72
2021/09/30 03:11:45;;;;;;;7.07;2.13;;;11.20;83.40;;;;;;5113774;28;20438;-72
2021/09/30 03:14:12;;;;;;;4.80;2.30;;;11.10;83.10;;;;;;5114003;28;20519;-72
2021/09/30 03:16:43;;;;;;;7.43;2.73;;;11.10;83.50;;;;;;5114006;28;20529;-72
2021/09/30 03:19:19;;;;;;;4.30;1.93;;;11.10;83.10;;;;;;5113770;28;20436;-72
2021/09/30 03:24:35;;;;;;;12.20;2.47;;;11.20;83.00;;;;;;5114604;28;20407;-72
2021/09/30 03:27:03;;;;;;;5.90;2.23;;;11.20;83.20;;;;;;5113885;28;20466;-72
2021/09/30 03:29:30;;;;;;;3.93;1.90;;;11.20;83.50;;;;;;5114012;28;20435;-72
2021/09/30 03:31:59;;;;;;;4.13;2.20;;;11.10;83.00;;;;;;5113629;28;20446;-72
2021/09/30 03:34:26;;;;;;;5.20;2.03;;;11.20;83.10;;;;;;5113809;28;20913;-72
2021/09/30 03:36:54;;;;;;;5.30;2.23;;;11.20;82.70;;;;;;5113847;28;20462;-72
2021/09/30 03:39:23;;;;;;;5.00;2.73;;;11.10;83.00;;;;;;5113897;28;20446;-72
2021/09/30 03:41:50;;;;;;;5.40;1.93;;;11.10;83.20;;;;;;5113971;28;20842;-72
2021/09/30 03:44:17;;;;;;;5.20;2.00;;;11.10;83.10;;;;;;5113567;28;20952;-72
2021/09/30 03:46:47;;;;;;;5.63;1.60;;;11.10;83.10;;;;;;5113900;28;20443;-72
2021/09/30 03:49:22;;;;;;;4.80;2.30;;;11.10;83.20;;;;;;5113810;28;20435;-72
2021/09/30 03:51:54;;;;;;;5.53;2.57;;;11.10;82.60;;;;;;5113668;28;20438;-73
2021/09/30 03:54:28;;;;;;;9.77;1.90;;;11.10;83.10;;;;;;5113632;28;20459;-73
2021/09/30 03:57:08;;;;;;;8.17;2.40;;;11.10;83.10;;;;;;5113544;28;20491;-72
2021/09/30 03:59:34;;;;;;;8.13;3.00;;;11.10;83.00;;;;;;5113363;28;20434;-72
2021/09/30 04:02:01;;;;;;;5.63;2.13;;;11.10;82.80;;;;;;5113335;28;20443;-72
2021/09/30 04:04:31;;;;;;;8.80;2.67;;;11.10;82.70;;;;;;5113583;28;20539;-72
2021/09/30 04:07:01;;;;;;;7.93;2.47;;;11.10;82.90;;;;;;5113089;28;20479;-72
2021/09/30 04:09:30;;;;;;;7.27;2.83;;;11.10;83.10;;;;;;5113639;28;20529;-72
2021/09/30 04:11:58;;;;;;;6.70;2.60;;;11.10;83.10;;;;;;5113541;28;20430;-73
2021/09/30 04:14:26;;;;;;;4.73;2.17;;;11.10;82.80;;;;;;5113537;28;20474;-73
2021/09/30 04:16:54;;;;;;;4.83;2.50;;;11.20;82.80;;;;;;5113568;28;20803;-72
2021/09/30 04:19:22;;;;;;;8.00;2.80;;;11.20;82.70;;;;;;5113434;28;20446;-72
2021/09/30 04:22:01;;;;;;;4.67;2.20;;;11.20;82.50;;;;;;5113467;28;20450;-73
2021/09/30 04:24:29;;;;;;;4.17;2.30;;;11.20;82.50;;;;;;5113133;28;20924;-73
2021/09/30 04:26:56;;;;;;;5.07;3.00;;;11.20;82.10;;;;;;5113308;28;20467;-72
2021/09/30 04:29:23;;;;;;;7.73;2.67;;;11.20;82.10;;;;;;5113437;28;20451;-72
2021/09/30 04:31:50;;;;;;;6.03;2.40;;;11.20;82.20;;;;;;5115676;28;20446;-72
2021/09/30 04:34:17;;;;;;;7.03;2.93;;;11.20;82.30;;;;;;5116881;28;20454;-72
2021/09/30 04:36:45;;;;;;;7.87;3.20;;;11.20;82.50;;;;;;5116779;28;20447;-72
2021/09/30 04:39:12;;;;;;;8.53;3.03;;;11.10;82.50;;;;;;5116911;28;20446;-72
2021/09/30 04:41:43;;;;;;;7.60;3.10;;;11.10;82.40;;;;;;5116854;27;20439;-72
2021/09/30 04:44:10;;;;;;;6.30;2.80;;;11.10;82.50;;;;;;5116533;27;20889;-72
2021/09/30 04:46:37;;;;;;;7.90;2.40;;;11.10;82.70;;;;;;5116655;28;20818;-71
2021/09/30 04:49:04;;;;;;;6.87;3.20;;;11.10;82.70;;;;;;5116689;28;20454;-72
2021/09/30 04:51:30;;;;;;;4.93;2.20;;;11.10;82.40;;;;;;5116390;27;20427;-72
2021/09/30 04:53:58;;;;;;;9.20;2.80;;;11.10;82.40;;;;;;5116573;28;20449;-72
2021/09/30 04:56:25;;;;;;;6.03;2.00;;;11.10;82.50;;;;;;5116373;28;20462;-72
2021/09/30 04:58:53;;;;;;;9.83;2.43;;;11.10;82.70;;;;;;5116292;28;20831;-72
2021/09/30 05:01:19;;;;;;;6.07;2.00;;;11.00;82.40;;;;;;5116524;28;20885;-72
2021/09/30 05:03:46;;;;;;;5.40;2.50;;;11.10;82.60;;;;;;5116303;27;20446;-72
2021/09/30 05:06:13;;;;;;;5.87;2.00;;;11.10;82.60;;;;;;5116116;28;20447;-73
2021/09/30 05:08:44;;;;;;;9.13;2.67;;;11.10;82.60;;;;;;5116142;28;20470;-72
2021/09/30 05:11:10;;;;;;;7.57;2.27;;;11.10;82.40;;;;;;5116943;27;20439;-72
2021/09/30 05:13:38;;;;;;;5.33;2.33;;;11.00;82.30;;;;;;5116164;28;20439;-72
2021/09/30 05:16:08;;;;;;;4.47;2.20;;;11.10;82.50;;;;;;5116056;28;20475;-72
2021/09/30 05:18:36;;;;;;;4.83;1.90;;;11.10;82.80;;;;;;5116384;28;20458;-72
2021/09/30 05:21:03;;;;;;;4.67;2.40;;;11.10;82.70;;;;;;5116241;28;20443;-73
2021/09/30 05:23:30;;;;;;;7.90;2.17;;;11.10;82.60;;;;;;5116186;27;20447;-72
2021/09/30 05:25:57;;;;;;;8.37;2.87;;;11.00;82.40;;;;;;5116172;28;20446;-72
2021/09/30 05:28:23;;;;;;;4.20;2.80;;;11.00;82.70;;;;;;5116112;28;20467;-71
2021/09/30 05:30:50;;;;;;;6.73;2.53;;;11.00;82.70;;;;;;5115959;28;20443;-71
2021/09/30 05:33:20;;;;;;;4.97;2.57;;;11.00;82.60;;;;;;5116124;27;20454;-71
2021/09/30 05:35:46;;;;;;;10.33;3.07;;;11.00;82.70;;;;;;5115961;28;20479;-72
2021/09/30 05:38:13;;;;;;;7.60;2.67;;;11.00;82.80;;;;;;5115787;28;20462;-72
2021/09/30 05:40:41;;;;;;;5.50;2.13;;;11.00;82.70;;;;;;5115859;28;20443;-72
2021/09/30 05:43:12;;;;;;;3.53;2.30;;;11.00;82.80;;;;;;5115512;28;20901;-72
2021/09/30 05:45:41;;;;;;;8.23;2.10;;;11.00;82.70;;;;;;5115353;28;20439;-72
2021/09/30 05:48:08;;;;;;;8.70;2.10;;;11.00;82.40;;;;;;5115464;28;20496;-71
2021/09/30 05:50:36;;;;;;;5.03;2.27;;;11.00;82.80;;;;;;5115408;28;20443;-72
2021/09/30 05:53:04;;;;;;;5.37;2.07;;;11.00;82.60;;;;;;5115510;28;20450;-72
2021/09/30 05:55:30;;;;;;;5.53;2.37;;;11.00;82.90;;;;;;5115345;28;20481;-72
2021/09/30 05:57:57;;;;;;;7.80;2.03;;;11.00;82.90;;;;;;5115317;28;20470;-71
2021/09/30 06:00:29;;;;;;;10.70;2.63;;;11.00;83.10;;;;;;5115257;28;20458;-72
2021/09/30 06:09:36;;;;;;;5.50;2.43;;;11.10;82.90;;;;;;5115027;28;20568;-71
2021/09/30 06:12:10;;;;;;;5.57;2.03;;;11.10;82.70;;;;;;5115140;28;20431;-72
2021/09/30 06:14:39;;;;;;;3.63;1.60;;;11.10;82.60;;;;;;5115140;28;20435;-72
2021/09/30 06:17:06;;;;;;;9.20;3.37;;;11.10;82.60;;;;;;5114691;28;20534;-71
2021/09/30 06:19:33;;;;;;;8.30;2.97;;;11.20;82.70;;;;;;5115126;28;20443;-72
2021/09/30 06:22:04;;;;;;;5.93;2.37;;;11.20;82.60;;;;;;5114733;28;20450;-72
2021/09/30 06:24:31;;;;;;;5.87;2.57;;;11.30;82.60;;;;;;5115016;28;20431;-72
2021/09/30 06:26:58;;;;;;;5.60;2.30;;;11.20;82.30;;;;;;5114637;28;20466;-72
2021/09/30 06:29:25;;;;;;;8.60;2.93;;;11.30;82.40;;;;;;5114754;28;20449;-72
2021/09/30 06:31:51;;;;;;;7.20;2.73;;;11.30;82.50;;;;;;5114847;28;20443;-72
2021/09/30 06:34:18;;;;;;;5.33;2.30;;;11.30;82.10;;;;;;5114825;28;20454;-72
2021/09/30 06:36:45;;;;;;;6.20;2.80;;;11.30;82.30;;;;;;5114525;28;20478;-72
2021/09/30 06:39:13;;;;;;;6.27;2.37;;;11.30;82.50;;;;;;5114470;28;20442;-72
2021/09/30 06:41:40;;;;;;;4.47;1.97;;;11.40;82.30;;;;;;5115202;28;20423;-72
2021/09/30 06:44:07;;;;;;;3.63;2.23;;;11.40;82.20;;;;;;5115245;28;20846;-72
2021/09/30 06:46:33;;;;;;;6.53;2.07;;;11.40;82.30;;;;;;5114520;28;20449;-71
2021/09/30 06:49:00;;;;;;;4.20;1.70;;;11.40;81.70;;;;;;5114548;28;20442;-72
2021/09/30 06:51:27;;;;;;;6.70;1.90;;;11.50;81.60;;;;;;5114524;28;20443;-72
2021/09/30 06:53:54;;;;;;;6.20;2.33;;;11.50;81.80;;;;;;5113832;28;20443;-72
2021/09/30 06:56:22;;;;;;;3.83;1.50;;;11.50;81.60;;;;;;5114313;28;20490;-72
2021/09/30 06:58:51;;;;;;;6.33;2.50;;;11.50;81.60;;;;;;5114198;28;20499;-72
2021/09/30 07:01:18;;;;;;;6.27;2.47;;;11.50;81.80;;;;;;5114192;28;20478;-72
2021/09/30 07:03:45;;;;;;;8.30;1.97;;;11.60;81.80;;;;;;5114268;28;20439;-72
2021/09/30 07:06:13;;;;;;;3.97;1.90;;;11.60;81.90;;;;;;5113913;28;20508;-72
2021/09/30 07:08:39;;;;;;;5.13;2.37;;;11.60;81.80;;;;;;5114152;28;20473;-72
2021/09/30 07:11:06;;;;;;;9.17;2.30;;;11.70;81.50;;;;;;5113786;28;20935;-72
2021/09/30 07:13:34;;;;;;;5.77;2.50;;;11.80;81.30;;;;;;5114163;28;20427;-72
2021/09/30 07:16:01;;;;;;;8.27;3.13;;;11.80;81.10;;;;;;5114050;28;20470;-72
2021/09/30 07:18:28;;;;;;;4.10;2.00;;;11.90;80.80;;;;;;5113949;28;20466;-72
2021/09/30 07:20:57;;;;;;;6.10;2.27;;;12.00;80.80;;;;;;5114054;28;20447;-72
2021/09/30 07:23:24;;;;;;;4.53;2.03;;;12.10;80.50;;;;;;5114024;28;20561;-72
2021/09/30 07:25:51;;;;;;;5.63;2.10;;;12.20;80.50;;;;;;5114020;28;20423;-73
2021/09/30 07:28:19;;;;;;;2.97;1.50;;;12.20;80.50;;;;;;5113782;28;20463;-72
2021/09/30 07:30:47;;;;;;;6.07;2.00;;;12.40;80.20;;;;;;5113913;28;20483;-72
2021/09/30 07:33:14;;;;;;;7.33;2.40;;;12.40;79.60;;;;;;5113946;28;20432;-72
2021/09/30 07:35:41;;;;;;;9.43;4.00;;;12.50;79.40;;;;;;5113501;28;20481;-72
2021/09/30 07:38:08;;;;;;;7.27;1.83;;;12.60;78.60;;;;;;5113872;28;20466;-72
2021/09/30 07:40:35;;;;;;;7.80;2.13;;;12.70;78.50;;;;;;5113991;28;20427;-72
2021/09/30 07:43:01;;;;;;;6.30;1.80;;;12.80;77.40;;;;;;5113913;28;20435;-73
2021/09/30 07:45:28;;;;;;;5.03;2.40;;;12.80;76.90;;;;;;5113833;28;20443;-73
2021/09/30 07:47:56;;;;;;;4.53;2.47;;;12.90;77.40;;;;;;5113731;28;20463;-72
2021/09/30 07:50:23;;;;;;;5.33;1.67;;;12.90;77.60;;;;;;5113723;28;20431;-72
2021/09/30 07:52:51;;;;;;;5.90;1.90;;;13.00;77.40;;;;;;5114319;28;20447;-72
2021/09/30 07:55:18;;;;;;;4.77;1.87;;;13.10;76.90;;;;;;5113265;28;20932;-72
2021/09/30 07:57:45;;;;;;;4.83;1.60;;;13.20;77.10;;;;;;5113596;28;20466;-72
2021/09/30 08:00:12;;;;;;;14.13;3.37;;;13.30;76.50;;;;;;5113613;28;20482;-72
2021/09/30 08:02:39;;;;;;;3.70;2.00;;;13.40;76.70;;;;;;5114151;28;20450;-72
2021/09/30 08:05:09;;;;;;;10.00;2.20;;;13.50;75.80;;;;;;5113708;28;20445;-72
2021/09/30 08:07:36;;;;;;;6.20;2.50;;;13.60;75.70;;;;;;5116881;28;20471;-72
2021/09/30 08:10:03;;;;;;;9.03;2.00;;;13.60;75.80;;;;;;5117436;28;20454;-72
2021/09/30 08:12:30;;;;;;;4.70;1.90;;;13.70;75.20;;;;;;5117170;28;20423;-72
2021/09/30 08:14:57;;;;;;;4.07;2.10;;;13.70;74.60;;;;;;5117006;27;20924;-72
2021/09/30 08:17:23;;;;;;;6.07;1.90;;;13.80;75.30;;;;;;5117083;28;20474;-72
2021/09/30 08:19:50;;;;;;;6.90;2.00;;;13.90;75.40;;;;;;5117321;28;20442;-73
2021/09/30 08:22:18;;;;;;;4.57;1.60;;;13.90;73.00;;;;;;5116875;27;20940;-72
2021/09/30 08:24:45;;;;;;;5.33;2.10;;;13.90;73.70;;;;;;5117753;28;20802;-72
2021/09/30 08:27:12;;;;;;;7.97;1.70;;;14.00;74.60;;;;;;5117254;28;20458;-72
2021/09/30 08:29:39;;;;;;;7.40;2.20;;;14.00;73.00;;;;;;5117558;28;20427;-72
2021/09/30 08:32:06;;;;;;;4.80;1.97;;;14.00;73.50;;;;;;5118159;27;20497;-73
2021/09/30 08:34:33;;;;;;;6.40;1.87;;;14.00;72.80;;;;;;5117182;28;20466;-73
2021/09/30 08:37:00;;;;;;;4.20;1.60;;;14.10;73.20;;;;;;5116855;28;20482;-72
2021/09/30 08:39:28;;;;;;;6.47;1.90;;;14.10;72.60;;;;;;5116997;28;20423;-73
2021/09/30 08:41:55;;;;;;;5.33;1.77;;;14.20;72.60;;;;;;5117412;28;20467;-73
2021/09/30 08:44:22;;;;;;;5.90;2.10;;;14.20;72.00;;;;;;5116923;28;20481;-73
2021/09/30 08:46:49;;;;;;;7.90;1.80;;;14.20;72.00;;;;;;5116710;28;20443;-72
2021/09/30 08:49:16;;;;;;;6.03;1.80;;;14.30;72.50;;;;;;5116699;28;20451;-72
2021/09/30 08:51:42;;;;;;;5.50;1.60;;;14.30;71.40;;;;;;5116716;28;20817;-73
2021/09/30 08:54:09;;;;;;;6.87;1.50;;;14.30;70.90;;;;;;5116617;27;20461;-73
2021/09/30 08:56:37;;;;;;;9.97;2.23;;;14.30;70.20;;;;;;5116376;28;20482;-69
2021/09/30 08:59:15;;;;;;;11.40;2.07;;;14.30;70.90;;;;;;5116434;28;20439;-68
2021/09/30 09:01:48;;;;;;;3.73;1.50;;;14.30;72.00;;;;;;5116477;28;20446;-68
2021/09/30 09:04:20;;;;;;;9.10;1.73;;;14.40;72.20;;;;;;5117232;28;20806;-68
2021/09/30 09:06:48;;;;;;;3.10;1.47;;;14.40;72.40;;;;;;5115992;28;20477;-69
2021/09/30 09:09:22;;;;;;;8.80;2.13;;;14.40;70.90;;;;;;5116003;27;20929;-68
2021/09/30 09:11:52;;;;;;;6.77;1.80;;;14.50;70.40;;;;;;5116230;28;20445;-68
2021/09/30 09:14:23;;;;;;;6.90;1.70;;;14.60;69.70;;;;;;5116230;28;20434;-68
2021/09/30 09:16:55;;;;;;;13.23;2.13;;;14.70;69.70;;;;;;5116388;28;20491;-68
2021/09/30 09:19:33;;;;;;;5.67;2.10;;;14.70;69.60;;;;;;5116128;28;20423;-68
2021/09/30 09:22:12;;;;;;;5.90;2.10;;;14.90;69.60;;;;;;5116129;28;20435;-68
2021/09/30 09:25:01;;;;;;;5.43;1.50;;;15.00;68.50;;;;;;5116151;28;20433;-68
2021/09/30 09:27:45;;;;;;;5.53;1.60;;;15.10;68.10;;;;;;5115594;28;20516;-68
2021/09/30 09:30:30;;;;;;;2.90;1.60;;;15.20;65.40;;;;;;5115960;28;20484;-68
2021/09/30 09:33:06;;;;;;;4.93;1.70;;;15.30;67.30;;;;;;5115851;27;20791;-68
2021/09/30 09:35:54;;;;;;;3.57;1.60;;;15.40;65.50;;;;;;5115476;27;20892;-68
2021/09/30 09:38:23;;;;;;;5.10;1.30;;;15.60;65.00;;;;;;5115515;28;21024;-68
2021/09/30 09:40:54;;;;;;;7.13;1.50;;;15.70;63.10;;;;;;5115682;27;20423;-68
2021/09/30 09:43:32;;;;;;;5.27;1.20;;;15.80;63.80;;;;;;5115658;28;20428;-68
2021/09/30 09:46:00;;;;;;;5.10;1.63;;;16.10;63.50;;;;;;5115520;28;20414;-68
2021/09/30 09:48:27;;;;;;;5.47;1.47;;;16.40;62.90;;;;;;5115438;27;20459;-68
2021/09/30 09:50:55;;;;;;;4.83;1.80;;;16.70;59.50;;;;;;5115156;27;20955;-68
2021/09/30 09:53:27;;;;;;;7.23;1.40;;;16.80;58.40;;;;;;5115166;28;21002;-68
2021/09/30 09:55:54;;;;;;;2.80;1.73;;;16.80;56.10;;;;;;5115291;28;20430;-68
2021/09/30 09:58:20;;;;;;;4.27;1.57;;;16.80;56.20;;;;;;5114900;28;21011;-68
2021/09/30 10:01:00;;;;;;;5.10;1.43;;;16.90;56.40;;;;;;5115290;28;20438;-68
2021/09/30 10:03:30;;;;;;;9.20;1.60;;;17.20;57.60;;;;;;5114919;28;20434;-68
2021/09/30 10:05:58;;;;;;;6.30;1.70;;;17.60;56.00;;;;;;5114845;28;20485;-68
2021/09/30 10:08:25;;;;;;;7.60;1.67;;;17.80;54.80;;;;;;5114993;27;20470;-68
2021/09/30 10:10:54;;;;;;;5.60;1.90;;;18.10;53.70;;;;;;5115061;28;20438;-68
2021/09/30 10:13:21;;;;;;;4.30;1.80;;;18.10;53.90;;;;;;5115051;28;20431;-68
2021/09/30 10:15:53;;;;;;;4.67;1.33;;;18.20;54.50;;;;;;5114911;28;20466;-68
2021/09/30 10:18:23;;;;;;;6.70;1.30;;;18.20;52.90;;;;;;5114848;28;20459;-69
2021/09/30 10:20:51;;;;;;;4.43;1.47;;;18.20;52.00;;;;;;5114855;28;20445;-68
2021/09/30 10:23:22;;;;;;;8.43;2.27;;;18.40;52.00;;;;;;5114874;27;20427;-68
2021/09/30 10:25:50;;;;;;;6.80;1.60;;;18.60;51.70;;;;;;5114845;28;20404;-68
2021/09/30 10:28:17;;;;;;;5.60;1.80;;;18.80;51.90;;;;;;5113930;28;20459;-69
2021/09/30 10:30:46;;;;;;;6.27;2.23;;;18.80;50.20;;;;;;5114670;28;20438;-69
2021/09/30 10:33:15;;;;;;;3.60;1.30;;;19.10;51.50;;;;;;5114676;28;20450;-68
2021/09/30 10:35:46;;;;;;;5.07;1.60;;;19.30;49.00;;;;;;5114629;28;20419;-69
2021/09/30 10:38:21;;;;;;;6.90;1.83;;;19.60;50.50;;;;;;5114493;28;20501;-68
2021/09/30 10:41:13;;;;;;;5.30;1.60;;;20.40;50.30;;;;;;5114527;28;20423;-68
2021/09/30 10:43:42;;;;;;;2.73;1.40;;;21.30;47.00;;;;;;5099375;28;20451;-69
2021/09/30 10:46:40;;;;;;;4.20;1.27;;;22.10;45.00;;;;;;5113968;28;20894;-69
2021/09/30 10:49:31;;;;;;;4.27;1.00;;;22.60;41.00;;;;;;5113985;28;20550;-69
2021/09/30 10:52:27;;;;;;;4.90;1.43;;;23.40;40.90;;;;;;5114325;28;20419;-69
2021/09/30 10:55:20;;;;;;;5.87;1.30;;;23.60;39.90;;;;;;5114315;28;20835;-69
2021/09/30 10:57:48;;;;;;;3.43;0.90;;;23.70;39.90;;;;;;5114122;28;20490;-69
2021/09/30 11:00:49;;;;;;;3.63;1.40;;;23.50;38.00;;;;;;5114130;28;20451;-69
2021/09/30 11:03:24;;;;;;;4.93;1.77;;;23.00;38.50;;;;;;5114189;28;20445;-69
2021/09/30 11:06:22;;;;;;;3.27;1.13;;;22.50;39.40;;;;;;5113813;28;20489;-69
2021/09/30 11:09:18;;;;;;;7.73;1.80;;;22.30;40.40;;;;;;5114136;28;20455;-69
2021/09/30 11:11:46;;;;;;;3.40;1.20;;;22.30;41.60;;;;;;5113831;28;20983;-69
2021/09/30 11:14:19;;;;;;;2.20;0.93;;;22.20;42.40;;;;;;5114061;28;20438;-69
2021/09/30 11:16:49;;;;;;;7.20;1.50;;;22.20;41.90;;;;;;5113883;28;20844;-69
2021/09/30 11:19:38;;;;;;;6.93;1.50;;;22.00;41.90;;;;;;5113734;28;20457;-69
2021/09/30 11:22:07;;;;;;;6.17;1.00;;;21.60;41.30;;;;;;5114020;28;20427;-69
2021/09/30 11:24:53;;;;;;;4.90;1.77;;;21.20;42.20;;;;;;5113910;28;20446;-69
2021/09/30 11:27:22;;;;;;;2.07;0.97;;;21.00;42.60;;;;;;5113882;28;20465;-69
2021/09/30 11:29:50;;;;;;;5.03;1.23;;;20.60;42.00;;;;;;5113840;28;20454;-69
2021/09/30 11:32:24;;;;;;;4.00;1.23;;;20.50;43.80;;;;;;5113843;28;20445;-69
2021/09/30 11:34:54;;;;;;;4.57;1.40;;;20.30;43.20;;;;;;5113599;28;20832;-69
2021/09/30 11:37:27;;;;;;;4.43;1.20;;;20.30;44.60;;;;;;5113677;28;20479;-69
2021/09/30 11:39:56;;;;;;;3.47;1.20;;;20.40;43.60;;;;;;5114573;28;20411;-69
2021/09/30 11:42:25;;;;;;;7.93;1.87;;;20.40;44.40;;;;;;5117973;28;20438;-69
2021/09/30 11:44:58;;;;;;;5.90;1.20;;;20.60;44.70;;;;;;5117896;28;20443;-69
2021/09/30 11:47:26;;;;;;;3.47;1.13;;;20.60;42.90;;;;;;5117842;28;20494;-69
2021/09/30 11:49:53;;;;;;;4.17;1.17;;;20.60;44.70;;;;;;5117896;28;20438;-69
2021/09/30 11:52:19;;;;;;;3.33;1.20;;;20.70;43.80;;;;;;5117473;28;20442;-69
2021/09/30 11:54:48;;;;;;;8.47;1.70;;;20.70;45.30;;;;;;5117708;28;20454;-69
2021/09/30 11:57:21;;;;;;;3.40;1.30;;;20.60;44.20;;;;;;5117269;28;20995;-69
2021/09/30 11:59:48;;;;;;;4.80;1.20;;;20.30;43.90;;;;;;5117732;28;20482;-69
2021/09/30 12:02:15;;;;;;;4.20;2.10;;;20.30;46.10;;;;;;5117816;28;20456;-69
2021/09/30 12:04:44;;;;;;;5.37;1.03;;;20.20;45.90;;;;;;5117643;28;20439;-69
2021/09/30 12:07:19;;;;;;;4.37;1.30;;;20.30;46.50;;;;;;5117155;28;20474;-69
2021/09/30 12:09:48;;;;;;;5.97;1.70;;;20.30;46.20;;;;;;5117158;28;20958;-69
2021/09/30 12:12:15;;;;;;;6.47;1.47;;;20.30;46.60;;;;;;5117399;28;20521;-69
2021/09/30 12:14:45;;;;;;;4.30;1.40;;;20.40;45.70;;;;;;5117402;28;20453;-69
2021/09/30 12:17:13;;;;;;;4.27;1.50;;;20.70;44.70;;;;;;5117245;28;20487;-69
2021/09/30 12:19:42;;;;;;;4.83;1.70;;;21.00;44.20;;;;;;5117272;28;20485;-69
2021/09/30 12:22:12;;;;;;;4.23;1.10;;;21.10;43.30;;;;;;5117143;28;20443;-69
2021/09/30 12:24:43;;;;;;;4.43;1.50;;;21.10;44.10;;;;;;5117173;28;20427;-69
2021/09/30 12:27:12;;;;;;;7.80;1.70;;;21.20;44.00;;;;;;5117068;28;20461;-69
2021/09/30 12:29:43;;;;;;;8.40;1.73;;;21.00;44.10;;;;;;5116999;28;20450;-69
2021/09/30 12:32:12;;;;;;;4.50;1.30;;;21.10;44.60;;;;;;5116879;27;20427;-69
2021/09/30 12:34:39;;;;;;;4.97;1.27;;;21.20;45.10;;;;;;5116732;28;20908;-70
2021/09/30 12:37:07;;;;;;;4.53;1.40;;;21.20;44.50;;;;;;5116805;28;20486;-70
2021/09/30 12:39:34;;;;;;;6.50;1.77;;;21.20;43.70;;;;;;5116890;28;20427;-69
2021/09/30 12:42:14;;;;;;;3.90;1.47;;;21.30;43.90;;;;;;5116852;27;20810;-69
2021/09/30 12:44:43;;;;;;;7.83;1.20;;;21.30;44.10;;;;;;5116817;28;20438;-69
2021/09/30 12:47:27;;;;;;;3.40;1.00;;;21.10;44.10;;;;;;5116715;28;20483;-70
2021/09/30 12:50:01;;;;;;;4.40;1.07;;;20.80;42.60;;;;;;5116706;28;20427;-69
2021/09/30 12:52:28;;;;;;;5.60;1.57;;;20.60;44.10;;;;;;5115817;28;20445;-69
2021/09/30 12:54:55;;;;;;;8.07;1.63;;;20.30;44.70;;;;;;5116732;28;20427;-69
2021/09/30 12:57:32;;;;;;;4.90;1.30;;;20.20;46.00;;;;;;5116471;28;20486;-69
2021/09/30 13:00:09;;;;;;;4.97;1.17;;;19.90;47.40;;;;;;5116587;28;20430;-69
2021/09/30 13:02:36;;;;;;;9.03;1.40;;;19.70;47.90;;;;;;5116481;28;20431;-69
2021/09/30 13:05:03;;;;;;;3.53;1.40;;;19.60;46.90;;;;;;5116845;28;20431;-69
2021/09/30 13:07:44;;;;;;;11.83;1.70;;;19.50;46.90;;;;;;5116244;28;20485;-69
2021/09/30 13:10:13;;;;;;;7.67;1.13;;;19.20;47.80;;;;;;5116274;28;20566;-69
2021/09/30 13:12:56;;;;;;;2.87;1.00;;;19.00;47.60;;;;;;5116309;27;20427;-69
2021/09/30 13:15:33;;;;;;;4.13;1.43;;;18.80;48.40;;;;;;5116262;28;20431;-69
2021/09/30 13:18:00;;;;;;;3.00;1.10;;;18.70;49.20;;;;;;5116040;27;20487;-69
2021/09/30 13:20:27;;;;;;;5.77;1.20;;;18.60;49.20;;;;;;5116023;28;20815;-69
2021/09/30 13:22:54;;;;;;;4.57;1.50;;;18.50;50.50;;;;;;5116086;28;20436;-69
2021/09/30 13:25:21;;;;;;;5.23;1.73;;;18.30;50.10;;;;;;5115777;28;20415;-70
2021/09/30 13:27:52;;;;;;;4.47;1.40;;;18.30;50.80;;;;;;5115911;28;20455;-70
2021/09/30 13:30:20;;;;;;;7.83;1.30;;;18.20;50.50;;;;;;5115934;28;20432;-70
2021/09/30 13:32:48;;;;;;;3.20;1.43;;;18.00;51.10;;;;;;5115833;27;20442;-70
2021/09/30 13:35:16;;;;;;;6.70;1.53;;;17.80;51.80;;;;;;5115810;27;20447;-70
2021/09/30 13:37:42;;;;;;;6.70;1.20;;;17.70;52.10;;;;;;5115660;28;20506;-70
2021/09/30 13:40:11;;;;;;;3.93;1.03;;;17.60;52.00;;;;;;5115690;28;20443;-70
2021/09/30 13:42:39;;;;;;;8.27;1.27;;;17.60;52.60;;;;;;5115674;28;20447;-69
2021/09/30 13:45:10;;;;;;;2.80;1.10;;;17.60;52.90;;;;;;5115346;28;20434;-69
2021/09/30 13:47:37;;;;;;;4.17;1.13;;;17.60;53.80;;;;;;5115531;28;20459;-69
2021/09/30 13:50:06;;;;;;;3.40;1.30;;;17.60;53.10;;;;;;5115509;27;20439;-69
2021/09/30 13:52:33;;;;;;;3.93;1.10;;;17.70;52.70;;;;;;5115489;28;20435;-69
2021/09/30 13:54:59;;;;;;;4.23;1.60;;;17.70;52.70;;;;;;5115430;28;20858;-69
2021/09/30 13:57:26;;;;;;;4.53;1.37;;;17.70;52.30;;;;;;5114982;28;21002;-70
2021/09/30 13:59:53;;;;;;;4.37;1.20;;;17.80;53.10;;;;;;5115291;27;20472;-70
2021/09/30 14:02:21;;;;;;;5.27;1.20;;;17.70;51.90;;;;;;5114964;27;20975;-69
2021/09/30 14:04:48;;;;;;;5.43;1.30;;;17.70;52.80;;;;;;5115226;28;20428;-70
2021/09/30 14:07:17;;;;;;;4.57;1.80;;;17.70;52.60;;;;;;5114770;27;20474;-68
2021/09/30 14:10:01;;;;;;;3.73;1.53;;;17.80;52.30;;;;;;5114647;28;20477;-68
2021/09/30 14:12:31;;;;;;;4.03;1.03;;;17.80;52.60;;;;;;5114814;28;20901;-68
2021/09/30 14:14:58;;;;;;;5.53;1.90;;;17.80;52.50;;;;;;5114145;28;20451;-68
2021/09/30 14:17:26;;;;;;;4.47;1.07;;;17.90;52.60;;;;;;5114848;28;20463;-68
2021/09/30 14:19:53;;;;;;;4.53;1.37;;;18.10;52.30;;;;;;5114594;28;20846;-68
2021/09/30 14:22:20;;;;;;;2.50;0.90;;;18.30;51.70;;;;;;5114955;28;20423;-68
2021/09/30 14:24:47;;;;;;;4.50;1.23;;;18.40;51.50;;;;;;5114869;28;20446;-68
2021/09/30 14:27:14;;;;;;;5.83;1.20;;;18.50;51.80;;;;;;5114424;28;20478;-67
2021/09/30 14:29:43;;;;;;;6.80;1.87;;;18.60;50.10;;;;;;5114845;28;20446;-67
2021/09/30 14:32:11;;;;;;;3.73;1.00;;;18.60;50.60;;;;;;5114455;28;20913;-68
2021/09/30 14:34:40;;;;;;;5.50;1.17;;;18.60;51.40;;;;;;5114596;28;20450;-68
2021/09/30 14:37:06;;;;;;;4.70;1.27;;;18.70;50.70;;;;;;5114267;28;20999;-68
2021/09/30 14:39:33;;;;;;;2.97;1.37;;;18.70;50.00;;;;;;5114592;27;20847;-67
2021/09/30 14:42:00;;;;;;;2.67;1.10;;;18.70;50.60;;;;;;5114598;28;20426;-68
2021/09/30 14:44:27;;;;;;;7.40;1.63;;;18.60;49.90;;;;;;5114484;28;20423;-68
2021/09/30 14:46:54;;;;;;;7.27;2.00;;;18.70;50.50;;;;;;5114120;27;20462;-68
2021/09/30 14:49:21;;;;;;;6.43;1.77;;;18.70;50.50;;;;;;5114172;28;20434;-68
2021/09/30 14:51:49;;;;;;;2.67;1.37;;;18.70;51.20;;;;;;5114439;28;20443;-68
2021/09/30 14:54:16;;;;;;;5.03;1.90;;;18.70;49.50;;;;;;5114422;28;20423;-67
2021/09/30 14:56:43;;;;;;;2.87;1.60;;;18.60;49.80;;;;;;5113918;28;20819;-68
2021/09/30 14:59:10;;;;;;;4.90;1.80;;;18.60;50.10;;;;;;5114281;28;20481;-68
2021/09/30 15:01:36;;;;;;;2.40;1.10;;;18.50;49.70;;;;;;5114243;28;20443;-68
2021/09/30 15:04:06;;;;;;;5.47;1.57;;;18.40;49.80;;;;;;5114325;28;20439;-68
2021/09/30 15:06:34;;;;;;;6.63;1.10;;;18.40;50.40;;;;;;5114010;28;20508;-68
2021/09/30 15:09:03;;;;;;;4.60;1.40;;;18.40;50.80;;;;;;5114056;28;20512;-68
2021/09/30 15:11:30;;;;;;;2.80;0.93;;;18.30;50.80;;;;;;5113985;28;20428;-68
2021/09/30 15:13:57;;;;;;;7.13;1.63;;;18.30;51.10;;;;;;5113690;28;20443;-68
2021/09/30 15:16:26;;;;;;;2.30;1.17;;;18.20;51.10;;;;;;5113453;28;20435;-68
2021/09/30 15:18:54;;;;;;;3.17;0.97;;;18.20;50.10;;;;;;5113236;28;20478;-68
2021/09/30 15:21:24;;;;;;;3.70;1.00;;;18.20;50.50;;;;;;5113771;28;20864;-68
2021/09/30 15:23:55;;;;;;;3.07;1.00;;;18.30;50.80;;;;;;5114043;28;20841;-68